Time;durP1;ratioP1;P1;durP2;ratioP2;P2;SDS_P1;SDS_P2;PMS_P1;PMS_P2;Temp;Humidity;BMP_temperature;BMP_pressure;BME280_temperature;BME280_humidity;BME280_pressure;Samples;Min_cycle;Max_cycle;Signal;HPM_P1;HPM_P2
2024/04/06 00:01:37;;;;;;;0.45;0.45;;;15.30;21.40;;;;;;4977394;28;20036;-78
2024/04/06 00:04:04;;;;;;;0.35;0.35;;;15.20;14.90;;;;;;4976092;28;20047;-78
2024/04/06 00:06:31;;;;;;;0.95;0.50;;;15.20;1.50;;;;;;4976788;28;20045;-78
2024/04/06 00:08:57;;;;;;;0.82;0.82;;;15.20;7.30;;;;;;4975502;28;20030;-78
2024/04/06 00:11:24;;;;;;;0.25;0.25;;;15.10;9.00;;;;;;4978058;28;20026;-78
2024/04/06 00:13:51;;;;;;;0.10;0.10;;;15.20;25.90;;;;;;4979051;28;20115;-78
2024/04/06 00:16:17;;;;;;;0.63;0.63;;;15.10;16.50;;;;;;4978979;28;20026;-77
2024/04/06 00:20:29;;;;;;;0.15;0.15;;;15.20;43.10;;;;;;5095644;27;20395;-78
2024/04/06 00:22:55;;;;;;;0.47;0.20;;;15.20;51.00;;;;;;5087099;28;20457;-77
2024/04/06 00:25:21;;;;;;;0.40;0.40;;;15.10;80.30;;;;;;5083996;28;20028;-78
2024/04/06 00:27:47;;;;;;;0.40;0.40;;;15.10;99.90;;;;;;5084219;28;20028;-78
2024/04/06 00:30:13;;;;;;;0.43;0.43;;;15.00;99.90;;;;;;5083460;28;20028;-77
2024/04/06 00:32:40;;;;;;;0.10;0.10;;;14.90;99.90;;;;;;5084793;28;20035;-78
2024/04/06 00:35:06;;;;;;;0.10;0.10;;;14.90;99.90;;;;;;5086173;28;20020;-79
2024/04/06 00:37:32;;;;;;;1.00;0.85;;;14.90;99.90;;;;;;5082970;28;20318;-79
2024/04/06 00:40:00;;;;;;;0.10;0.10;;;14.90;99.90;;;;;;5084888;28;20032;-79
2024/04/06 00:42:26;;;;;;;0.17;0.17;;;14.90;99.90;;;;;;5082701;28;20025;-79
2024/04/06 00:44:52;;;;;;;2.65;1.13;;;15.00;99.90;;;;;;5085960;28;20349;-78
2024/04/06 00:47:18;;;;;;;0.10;0.10;;;14.90;99.90;;;;;;5096781;28;20072;-78
2024/04/06 00:49:44;;;;;;;0.15;0.15;;;14.90;98.20;;;;;;5083163;28;20040;-78
2024/04/06 00:52:11;;;;;;;0.22;0.22;;;15.00;93.40;;;;;;5083752;28;20047;-78
2024/04/06 00:54:38;;;;;;;0.55;0.47;;;15.00;53.00;;;;;;5104495;28;20103;-78
2024/04/06 00:57:07;;;;;;;0.47;0.40;;;15.00;44.60;;;;;;5082869;28;20445;-78
2024/04/06 00:59:34;;;;;;;0.30;0.30;;;15.00;29.60;;;;;;5096388;28;20029;-78
2024/04/06 01:02:02;;;;;;;0.43;0.43;;;15.00;20.70;;;;;;5087224;28;20067;-79
2024/04/06 01:04:29;;;;;;;1.15;0.50;;;15.10;1.00;;;;;;5083787;28;20043;-78
2024/04/06 01:06:56;;;;;;;2.17;1.27;;;15.20;1.00;;;;;;5086181;28;20036;-79
2024/04/06 01:09:25;;;;;;;1.45;1.17;;;15.20;1.00;;;;;;5081911;28;20033;-79
2024/04/06 01:11:51;;;;;;;0.88;0.88;;;15.20;1.00;;;;;;5098408;28;20594;-79
2024/04/06 01:14:18;;;;;;;0.20;0.20;;;15.20;1.00;;;;;;5083165;28;20032;-79
2024/04/06 01:16:44;;;;;;;0.68;0.50;;;15.20;1.00;;;;;;5084416;28;20449;-79
2024/04/06 01:19:10;;;;;;;0.15;0.15;;;15.10;1.00;;;;;;5082359;28;20055;-79
2024/04/06 01:21:37;;;;;;;0.93;0.90;;;15.00;14.20;;;;;;5085210;28;20397;-78
2024/04/06 01:24:22;;;;;;;0.25;0.25;;;15.00;9.00;;;;;;5085403;28;20028;-79
2024/04/06 01:26:52;;;;;;;0.20;0.20;;;14.90;21.00;;;;;;5082861;28;20032;-78
2024/04/06 01:29:20;;;;;;;0.10;0.10;;;14.80;19.10;;;;;;5080052;28;20377;-79
2024/04/06 01:31:46;;;;;;;0.10;0.10;;;14.70;48.40;;;;;;5071127;28;20032;-78
2024/04/06 01:34:12;;;;;;;1.65;1.05;;;14.60;62.90;;;;;;5069644;28;20032;-78
2024/04/06 01:36:40;;;;;;;0.20;0.20;;;14.50;59.40;;;;;;5088042;28;20049;-78
2024/04/06 01:39:11;;;;;;;0.10;0.10;;;14.50;59.90;;;;;;5083985;28;20057;-78
2024/04/06 01:41:38;;;;;;;0.20;0.20;;;14.60;60.40;;;;;;5078496;28;20466;-78
2024/04/06 01:44:06;;;;;;;1.05;0.77;;;14.50;61.00;;;;;;5069036;28;20386;-78
2024/04/06 01:46:33;;;;;;;0.40;0.40;;;14.60;57.30;;;;;;5069944;28;20028;-78
2024/04/06 01:49:00;;;;;;;0.55;0.55;;;14.50;44.10;;;;;;5067939;28;20377;-79
2024/04/06 01:51:26;;;;;;;0.10;0.10;;;14.50;40.60;;;;;;5065655;28;20122;-78
2024/04/06 01:53:53;;;;;;;0.10;0.10;;;14.50;36.90;;;;;;5072066;28;20365;-78
2024/04/06 01:56:19;;;;;;;0.13;0.13;;;14.40;46.60;;;;;;5068613;28;20033;-79
2024/04/06 01:58:46;;;;;;;1.10;0.80;;;14.30;67.60;;;;;;5067226;28;20028;-78
2024/04/06 02:01:13;;;;;;;0.63;0.30;;;14.20;90.00;;;;;;5070914;28;20032;-78
2024/04/06 02:03:40;;;;;;;0.10;0.10;;;14.20;92.50;;;;;;5066588;28;20059;-78
2024/04/06 02:06:08;;;;;;;0.35;0.35;;;14.10;99.90;;;;;;5069756;28;20370;-78
2024/04/06 02:08:35;;;;;;;0.50;0.50;;;14.00;99.90;;;;;;5069369;28;20028;-79
2024/04/06 02:11:02;;;;;;;0.20;0.20;;;13.90;99.90;;;;;;5070554;28;20036;-79
2024/04/06 02:13:29;;;;;;;0.30;0.30;;;13.90;99.90;;;;;;5067635;28;20028;-78
2024/04/06 02:15:56;;;;;;;0.68;0.65;;;13.70;99.90;;;;;;5067017;28;20024;-79
2024/04/06 02:18:23;;;;;;;0.70;0.38;;;13.60;99.90;;;;;;5064216;28;20045;-78
2024/04/06 02:20:49;;;;;;;0.30;0.28;;;13.50;99.90;;;;;;5070576;28;20028;-78
2024/04/06 02:23:15;;;;;;;2.72;0.75;;;13.40;99.90;;;;;;5069818;28;20040;-78
2024/04/06 02:25:41;;;;;;;0.10;0.10;;;13.30;99.90;;;;;;5069246;28;20041;-78
2024/04/06 02:28:07;;;;;;;0.50;0.43;;;13.30;99.90;;;;;;5083801;28;20028;-78
2024/04/06 02:30:34;;;;;;;0.38;0.38;;;13.30;1.00;;;;;;5070575;28;20024;-78
2024/04/06 02:33:00;;;;;;;0.30;0.30;;;13.20;99.90;;;;;;5068983;28;20418;-78
2024/04/06 02:35:26;;;;;;;0.20;0.20;;;13.20;1.00;;;;;;5070476;28;20024;-78
2024/04/06 02:37:52;;;;;;;0.20;0.20;;;13.10;99.90;;;;;;5067249;28;20383;-78
2024/04/06 02:40:18;;;;;;;1.02;0.60;;;13.10;99.90;;;;;;5069970;28;20047;-79
2024/04/06 02:42:44;;;;;;;0.30;0.30;;;13.10;99.90;;;;;;5069663;28;20035;-78
2024/04/06 02:45:11;;;;;;;0.20;0.20;;;13.10;99.90;;;;;;5069708;28;20024;-78
2024/04/06 02:47:37;;;;;;;1.58;1.02;;;13.10;99.90;;;;;;5085385;28;20369;-78
2024/04/06 02:50:04;;;;;;;0.20;0.20;;;13.20;99.90;;;;;;5070511;28;20047;-78
2024/04/06 02:52:30;;;;;;;1.75;0.40;;;13.30;99.90;;;;;;5067178;28;20584;-78
2024/04/06 02:54:56;;;;;;;0.30;0.30;;;13.30;99.90;;;;;;5086077;28;20373;-79
2024/04/06 02:57:22;;;;;;;1.00;0.40;;;13.10;99.90;;;;;;5068190;28;20032;-78
2024/04/06 02:59:49;;;;;;;0.77;0.73;;;13.10;99.90;;;;;;5070479;28;20036;-78
2024/04/06 03:02:15;;;;;;;0.40;0.40;;;13.00;99.90;;;;;;5069353;28;20028;-78
2024/04/06 03:04:42;;;;;;;1.17;0.65;;;12.90;99.90;;;;;;5068188;28;20039;-78
2024/04/06 03:07:10;;;;;;;0.20;0.20;;;12.90;99.90;;;;;;5068539;28;20029;-78
2024/04/06 03:09:36;;;;;;;0.28;0.28;;;12.80;99.90;;;;;;5070018;28;20040;-78
2024/04/06 03:12:06;;;;;;;0.25;0.25;;;12.80;99.90;;;;;;5069618;28;20048;-78
2024/04/06 03:14:32;;;;;;;0.30;0.30;;;12.80;99.90;;;;;;5068633;28;20369;-78
2024/04/06 03:16:58;;;;;;;0.22;0.22;;;12.80;99.90;;;;;;5067864;28;20039;-78
2024/04/06 03:19:27;;;;;;;0.40;0.40;;;13.00;99.90;;;;;;5065901;28;20049;-78
2024/04/06 03:21:53;;;;;;;0.13;0.13;;;13.10;99.90;;;;;;5070731;28;20338;-78
2024/04/06 03:24:20;;;;;;;0.70;0.50;;;13.10;99.90;;;;;;5065817;28;20040;-79
2024/04/06 03:26:46;;;;;;;0.20;0.20;;;13.10;99.90;;;;;;5070395;28;20453;-78
2024/04/06 03:29:13;;;;;;;2.70;1.38;;;13.10;93.20;;;;;;5064664;28;20029;-78
2024/04/06 03:31:40;;;;;;;0.17;0.17;;;13.00;79.10;;;;;;5067440;28;20032;-78
2024/04/06 03:34:06;;;;;;;3.00;0.43;;;13.00;96.90;;;;;;5085749;28;20027;-78
2024/04/06 03:36:32;;;;;;;0.20;0.20;;;12.90;75.70;;;;;;5066176;28;20031;-78
2024/04/06 03:38:58;;;;;;;0.10;0.10;;;12.90;93.60;;;;;;5082673;28;20045;-78
2024/04/06 03:41:25;;;;;;;0.20;0.20;;;12.80;99.90;;;;;;5066199;28;20037;-78
2024/04/06 03:43:51;;;;;;;0.10;0.10;;;12.70;99.90;;;;;;5065132;28;20345;-78
2024/04/06 03:46:17;;;;;;;0.20;0.15;;;12.60;99.90;;;;;;5070051;28;20051;-78
2024/04/06 03:48:43;;;;;;;0.10;0.10;;;12.50;99.90;;;;;;5079794;28;20389;-78
2024/04/06 03:51:10;;;;;;;0.68;0.47;;;12.40;99.90;;;;;;5067689;28;20370;-78
2024/04/06 03:53:38;;;;;;;0.30;0.30;;;12.20;99.90;;;;;;5067664;28;20047;-78
2024/04/06 03:56:05;;;;;;;0.22;0.22;;;12.10;99.90;;;;;;5065743;28;20024;-78
2024/04/06 03:58:31;;;;;;;0.30;0.30;;;12.10;99.90;;;;;;5067296;28;20039;-78
2024/04/06 04:00:57;;;;;;;0.10;0.10;;;12.10;99.90;;;;;;5069769;28;20495;-78
2024/04/06 04:03:23;;;;;;;0.70;0.70;;;12.10;99.90;;;;;;5067059;28;20032;-79
2024/04/06 04:05:50;;;;;;;0.32;0.30;;;12.20;99.90;;;;;;5069185;28;20024;-78
2024/04/06 04:08:16;;;;;;;0.20;0.20;;;12.20;99.90;;;;;;5067690;28;20040;-79
2024/04/06 04:10:42;;;;;;;0.15;0.15;;;12.20;99.90;;;;;;5071456;28;20028;-78
2024/04/06 04:13:12;;;;;;;0.15;0.15;;;12.10;99.90;;;;;;5067643;28;20031;-78
2024/04/06 04:15:40;;;;;;;0.65;0.65;;;12.00;99.90;;;;;;5084291;28;20381;-78
2024/04/06 04:18:08;;;;;;;0.20;0.20;;;12.00;99.90;;;;;;5066389;28;20052;-78
2024/04/06 04:20:35;;;;;;;0.10;0.10;;;11.90;99.90;;;;;;5067119;28;20040;-78
2024/04/06 04:23:01;;;;;;;0.20;0.20;;;11.80;99.90;;;;;;5068719;28;20036;-78
2024/04/06 04:25:29;;;;;;;0.20;0.20;;;11.70;99.90;;;;;;5085334;28;20029;-78
2024/04/06 04:27:56;;;;;;;0.30;0.30;;;11.70;1.00;;;;;;5065606;28;20032;-77
2024/04/06 04:30:22;;;;;;;0.85;0.65;;;11.60;1.00;;;;;;5067439;28;20045;-78
2024/04/06 04:32:49;;;;;;;0.40;0.40;;;11.50;1.00;;;;;;5066593;28;20040;-77
2024/04/06 04:35:15;;;;;;;0.65;0.60;;;11.50;1.00;;;;;;5069739;28;20036;-78
2024/04/06 04:37:41;;;;;;;1.23;0.77;;;11.40;1.00;;;;;;5066335;28;20033;-78
2024/04/06 04:40:09;;;;;;;0.10;0.10;;;11.40;1.00;;;;;;5067220;28;20045;-77
2024/04/06 04:42:35;;;;;;;0.35;0.35;;;11.40;1.00;;;;;;5066285;28;20028;-78
2024/04/06 04:45:10;;;;;;;0.20;0.20;;;11.40;1.00;;;;;;5065675;28;20033;-78
2024/04/06 04:47:37;;;;;;;0.30;0.20;;;11.30;6.00;;;;;;5061839;28;20599;-78
2024/04/06 04:50:04;;;;;;;0.30;0.30;;;11.10;31.80;;;;;;5070429;28;20071;-78
2024/04/06 04:52:30;;;;;;;3.03;1.52;;;11.10;52.50;;;;;;5066132;28;20796;-78
2024/04/06 04:54:56;;;;;;;0.52;0.52;;;11.00;83.00;;;;;;5068476;28;20053;-78
2024/04/06 04:57:23;;;;;;;0.50;0.40;;;11.00;90.80;;;;;;5062156;28;20029;-79
2024/04/06 04:59:49;;;;;;;0.52;0.52;;;11.00;93.40;;;;;;5067012;28;20033;-78
2024/04/06 05:02:16;;;;;;;0.10;0.10;;;11.00;94.10;;;;;;5069106;28;20043;-76
2024/04/06 05:04:42;;;;;;;0.20;0.20;;;11.10;99.90;;;;;;5069142;28;20032;-77
2024/04/06 05:07:09;;;;;;;0.65;0.40;;;11.10;99.90;;;;;;5071779;28;20359;-78
2024/04/06 05:09:35;;;;;;;0.22;0.20;;;11.00;99.90;;;;;;5060088;28;20681;-77
2024/04/06 05:12:02;;;;;;;12.75;1.88;;;11.00;99.90;;;;;;5064994;28;20020;-77
2024/04/06 05:14:29;;;;;;;0.20;0.20;;;11.00;99.90;;;;;;5065648;28;20024;-76
2024/04/06 05:16:55;;;;;;;0.10;0.10;;;11.00;99.90;;;;;;5066082;28;20029;-77
2024/04/06 05:19:21;;;;;;;0.35;0.35;;;11.00;99.90;;;;;;5054016;28;20063;-77
2024/04/06 05:21:48;;;;;;;0.30;0.30;;;11.00;99.90;;;;;;5057789;28;20028;-77
2024/04/06 05:24:14;;;;;;;0.55;0.50;;;11.10;99.90;;;;;;5060574;28;20044;-77
2024/04/06 05:26:44;;;;;;;0.43;0.43;;;11.10;99.90;;;;;;5053789;28;20021;-77
2024/04/06 05:29:11;;;;;;;0.20;0.20;;;11.10;99.90;;;;;;5050719;28;20029;-77
2024/04/06 05:31:39;;;;;;;0.10;0.10;;;11.20;99.90;;;;;;5056728;28;20020;-77
2024/04/06 05:34:06;;;;;;;0.20;0.20;;;11.30;99.90;;;;;;5069811;28;20021;-77
2024/04/06 05:36:32;;;;;;;0.30;0.20;;;11.50;91.40;;;;;;5051770;28;20378;-77
2024/04/06 05:38:59;;;;;;;0.30;0.30;;;11.70;57.00;;;;;;5046189;28;20044;-77
2024/04/06 05:41:26;;;;;;;0.22;0.22;;;12.10;46.20;;;;;;5050201;28;20033;-78
2024/04/06 05:43:53;;;;;;;1.05;0.85;;;12.50;1.00;;;;;;5054546;28;20374;-79
2024/04/06 05:46:20;;;;;;;0.20;0.20;;;12.90;1.00;;;;;;5053004;28;20021;-78
2024/04/06 05:48:46;;;;;;;2.53;0.75;;;13.30;1.00;;;;;;5055743;28;20033;-79
2024/04/06 05:51:12;;;;;;;0.25;0.25;;;13.70;99.90;;;;;;5055471;28;20031;-79
2024/04/06 05:53:40;;;;;;;0.10;0.10;;;14.10;99.90;;;;;;5050408;28;20029;-79
2024/04/06 05:56:08;;;;;;;0.10;0.10;;;14.40;99.90;;;;;;5055001;28;20032;-79
2024/04/06 05:58:35;;;;;;;0.10;0.10;;;14.60;99.90;;;;;;5051761;28;20048;-79
2024/04/06 06:01:01;;;;;;;1.55;0.20;;;14.80;5.00;;;;;;5053707;28;20040;-79
2024/04/06 06:03:28;;;;;;;1.50;0.85;;;14.90;1.00;;;;;;5051701;28;20041;-79
2024/04/06 06:05:54;;;;;;;2.53;1.02;;;15.20;1.00;;;;;;5053501;28;20036;-80
2024/04/06 06:08:20;;;;;;;0.35;0.30;;;15.40;1.00;;;;;;5050414;28;20039;-79
2024/04/06 06:10:46;;;;;;;0.28;0.25;;;15.50;1.00;;;;;;5054121;28;20028;-80
2024/04/06 06:13:12;;;;;;;0.95;0.47;;;15.50;1.00;;;;;;5053273;28;20025;-80
2024/04/06 06:15:39;;;;;;;1.35;0.85;;;15.50;1.00;;;;;;5048782;28;20040;-81
2024/04/06 06:18:05;;;;;;;0.55;0.20;;;15.40;1.00;;;;;;5051238;28;20028;-81
2024/04/06 06:20:31;;;;;;;0.10;0.10;;;15.20;1.00;;;;;;5058689;28;20029;-81
2024/04/06 06:22:58;;;;;;;1.00;0.55;;;15.00;1.00;;;;;;5057745;28;20021;-81
2024/04/06 06:25:24;;;;;;;0.55;0.45;;;14.90;1.00;;;;;;5044942;28;20045;-81
2024/04/06 06:27:51;;;;;;;3.10;1.63;;;14.60;10.40;;;;;;5059551;28;20036;-80
2024/04/06 06:30:17;;;;;;;0.20;0.20;;;14.40;64.70;;;;;;5062726;28;20461;-82
2024/04/06 06:32:43;;;;;;;1.75;0.98;;;14.50;88.70;;;;;;5063495;28;20020;-81
2024/04/06 06:35:11;;;;;;;0.10;0.10;;;15.00;99.90;;;;;;5060197;28;20041;-81
2024/04/06 06:37:37;;;;;;;0.20;0.20;;;15.20;1.00;;;;;;5060612;28;20370;-82
2024/04/06 06:40:04;;;;;;;0.10;0.10;;;15.90;1.00;;;;;;5061980;28;20459;-82
2024/04/06 06:42:30;;;;;;;0.10;0.10;;;16.00;1.00;;;;;;5051162;28;20036;-82
2024/04/06 06:44:56;;;;;;;0.13;0.13;;;16.70;1.00;;;;;;5052570;28;20024;-82
2024/04/06 06:47:24;;;;;;;0.77;0.57;;;17.40;99.90;;;;;;5050501;28;20025;-82
2024/04/06 06:49:51;;;;;;;0.45;0.35;;;17.60;99.90;;;;;;5055611;28;20033;-82
2024/04/06 06:52:17;;;;;;;0.85;0.50;;;17.40;99.90;;;;;;5052008;28;20052;-80
2024/04/06 06:54:43;;;;;;;1.90;0.68;;;17.30;99.90;;;;;;5047736;28;20040;-81
2024/04/06 06:57:09;;;;;;;0.10;0.10;;;17.40;99.90;;;;;;5051417;28;20350;-81
2024/04/06 06:59:36;;;;;;;0.30;0.22;;;17.60;99.90;;;;;;5043970;28;20037;-82
2024/04/06 07:02:02;;;;;;;0.75;0.40;;;17.90;99.90;;;;;;5039930;28;20033;-82
2024/04/06 07:04:28;;;;;;;0.85;0.52;;;18.20;99.90;;;;;;5045547;28;20048;-81
2024/04/06 07:06:54;;;;;;;1.15;0.30;;;18.40;99.90;;;;;;5053864;28;20032;-80
2024/04/06 07:09:21;;;;;;;1.42;0.30;;;18.50;99.90;;;;;;5039694;28;20465;-78
2024/04/06 07:11:47;;;;;;;1.65;0.93;;;18.50;99.90;;;;;;5051195;28;20374;-81
2024/04/06 07:14:13;;;;;;;3.25;0.45;;;18.50;99.90;;;;;;5049467;28;20041;-81
2024/04/06 07:16:39;;;;;;;0.60;0.60;;;18.50;99.90;;;;;;5063592;28;20036;-81
2024/04/06 07:19:09;;;;;;;0.28;0.28;;;18.60;99.90;;;;;;5039605;28;20041;-82
2024/04/06 07:21:35;;;;;;;3.03;1.75;;;18.70;99.90;;;;;;5057457;28;20056;-82
2024/04/06 07:24:02;;;;;;;1.02;0.35;;;19.00;99.90;;;;;;5057900;28;20028;-80
2024/04/06 07:26:28;;;;;;;0.20;0.20;;;19.20;99.90;;;;;;5066035;28;20037;-82
2024/04/06 07:28:54;;;;;;;0.47;0.47;;;19.20;99.90;;;;;;5044552;28;20143;-82
2024/04/06 07:31:23;;;;;;;5.78;0.77;;;19.00;99.90;;;;;;5048708;28;20040;-82
2024/04/06 07:33:50;;;;;;;0.10;0.10;;;18.80;99.90;;;;;;5048414;28;20029;-82
2024/04/06 07:36:20;;;;;;;0.10;0.10;;;18.40;99.90;;;;;;5050283;28;20029;-80
2024/04/06 07:38:46;;;;;;;0.60;0.30;;;18.10;99.90;;;;;;5057403;28;20032;-80
2024/04/06 07:41:12;;;;;;;0.20;0.20;;;18.00;99.90;;;;;;5050642;28;20296;-80
2024/04/06 07:43:39;;;;;;;0.10;0.10;;;18.10;99.90;;;;;;5067915;28;20024;-81
2024/04/06 07:46:05;;;;;;;0.10;0.10;;;18.20;99.90;;;;;;5052464;28;20021;-80
2024/04/06 07:48:31;;;;;;;0.40;0.32;;;18.50;99.90;;;;;;5049294;28;20060;-80
2024/04/06 07:50:57;;;;;;;0.30;0.30;;;18.90;99.90;;;;;;5051692;28;20025;-80
2024/04/06 07:53:24;;;;;;;0.45;0.30;;;19.10;99.90;;;;;;5048462;28;20136;-78
2024/04/06 07:55:50;;;;;;;0.80;0.77;;;19.10;99.90;;;;;;5048644;28;20037;-81
2024/04/06 07:58:16;;;;;;;0.50;0.40;;;19.30;99.90;;;;;;5051226;28;20036;-81
2024/04/06 08:00:42;;;;;;;0.20;0.20;;;19.40;99.90;;;;;;5052343;28;20033;-81
2024/04/06 08:03:09;;;;;;;0.32;0.30;;;19.40;99.90;;;;;;5052279;28;20052;-81
2024/04/06 08:05:36;;;;;;;0.25;0.25;;;19.60;99.90;;;;;;5053447;28;20024;-80
2024/04/06 08:08:03;;;;;;;0.35;0.30;;;19.90;99.90;;;;;;5052952;28;20047;-80
2024/04/06 08:10:29;;;;;;;0.10;0.10;;;20.10;99.90;;;;;;5055024;28;20374;-81
2024/04/06 08:12:55;;;;;;;0.30;0.30;;;20.40;99.90;;;;;;5051083;28;20029;-80
2024/04/06 08:15:22;;;;;;;0.30;0.30;;;20.50;99.90;;;;;;5064296;28;20036;-80
2024/04/06 08:17:49;;;;;;;0.40;0.40;;;20.60;99.90;;;;;;5071069;28;20036;-80
2024/04/06 08:20:16;;;;;;;0.82;0.52;;;20.50;99.90;;;;;;5057870;28;20060;-80
2024/04/06 08:22:43;;;;;;;0.68;0.52;;;20.70;99.90;;;;;;5055429;28;20041;-80
2024/04/06 08:25:10;;;;;;;0.40;0.28;;;20.50;99.90;;;;;;5051518;28;20478;-80
2024/04/06 08:27:37;;;;;;;0.32;0.32;;;20.60;99.90;;;;;;5048913;28;20029;-80
2024/04/06 08:30:05;;;;;;;0.32;0.32;;;20.80;99.90;;;;;;5050578;28;20040;-83
2024/04/06 08:32:33;;;;;;;0.85;0.73;;;20.80;99.90;;;;;;5051125;28;20029;-80
2024/04/06 08:34:59;;;;;;;0.90;0.73;;;20.90;99.90;;;;;;5050305;28;20037;-81
2024/04/06 08:37:26;;;;;;;0.40;0.25;;;20.40;99.90;;;;;;5053899;28;20028;-78
2024/04/06 08:39:53;;;;;;;0.80;0.80;;;20.40;99.90;;;;;;5055886;28;20391;-80
2024/04/06 08:42:22;;;;;;;0.13;0.13;;;20.80;99.90;;;;;;5060711;28;20028;-81
2024/04/06 08:44:49;;;;;;;0.20;0.20;;;21.30;99.90;;;;;;5056583;28;20029;-79
2024/04/06 08:47:19;;;;;;;0.30;0.30;;;21.50;99.90;;;;;;5055368;28;20576;-80
2024/04/06 08:49:45;;;;;;;0.10;0.10;;;21.70;99.90;;;;;;5050643;28;20037;-79
2024/04/06 08:52:12;;;;;;;0.25;0.20;;;22.00;99.90;;;;;;5051053;28;20352;-80
2024/04/06 08:54:38;;;;;;;0.20;0.20;;;22.20;99.90;;;;;;5065084;28;20469;-80
2024/04/06 08:57:05;;;;;;;0.30;0.30;;;22.00;99.90;;;;;;5059962;28;20044;-80
2024/04/06 08:59:34;;;;;;;0.20;0.20;;;22.20;99.90;;;;;;5056224;28;20029;-80
2024/04/06 09:02:01;;;;;;;1.07;0.97;;;22.30;99.90;;;;;;5059516;28;20048;-80
2024/04/06 09:04:28;;;;;;;0.17;0.17;;;22.30;99.90;;;;;;5051382;28;20272;-78
2024/04/06 09:06:54;;;;;;;0.10;0.10;;;22.40;99.90;;;;;;5052248;28;20056;-79
2024/04/06 09:09:21;;;;;;;0.30;0.30;;;22.00;99.90;;;;;;5054191;28;20032;-82
2024/04/06 09:11:47;;;;;;;10.85;1.00;;;22.60;99.90;;;;;;5054842;28;20037;-79
2024/04/06 09:14:14;;;;;;;0.30;0.30;;;23.10;99.90;;;;;;5067985;28;20377;-81
2024/04/06 09:16:40;;;;;;;0.20;0.20;;;23.00;99.90;;;;;;5078557;28;20041;-81
2024/04/06 09:19:07;;;;;;;0.38;0.38;;;23.20;99.90;;;;;;5058497;28;20053;-81
2024/04/06 09:21:33;;;;;;;0.20;0.20;;;23.50;99.90;;;;;;5058764;28;20033;-77
2024/04/06 09:24:01;;;;;;;0.38;0.25;;;23.60;99.50;;;;;;5060601;28;20036;-81
2024/04/06 09:26:31;;;;;;;0.20;0.20;;;23.90;97.50;;;;;;5051979;28;20469;-80
2024/04/06 09:28:59;;;;;;;0.10;0.10;;;23.80;95.80;;;;;;5051935;28;20027;-80
2024/04/06 09:31:26;;;;;;;0.30;0.30;;;23.70;97.00;;;;;;5048373;28;20037;-79
2024/04/06 09:33:57;;;;;;;0.10;0.10;;;23.40;97.20;;;;;;5063302;28;20024;-80
2024/04/06 09:36:24;;;;;;;0.17;0.17;;;23.40;97.10;;;;;;5064840;28;20032;-81
2024/04/06 09:38:52;;;;;;;0.35;0.35;;;23.80;96.70;;;;;;5058464;28;20025;-82
2024/04/06 09:41:20;;;;;;;1.38;0.77;;;24.40;92.40;;;;;;5072932;28;20048;-80
2024/04/06 09:43:52;;;;;;;0.20;0.20;;;24.50;91.30;;;;;;5056023;28;20036;-80
2024/04/06 09:46:19;;;;;;;0.10;0.10;;;24.30;89.10;;;;;;5054971;28;20025;-80
2024/04/06 09:48:46;;;;;;;1.08;0.30;;;24.10;92.20;;;;;;5051636;28;20032;-80
2024/04/06 09:51:12;;;;;;;11.18;1.10;;;24.00;91.70;;;;;;5053008;28;20477;-80
2024/04/06 09:53:41;;;;;;;1.45;0.20;;;24.10;92.30;;;;;;5067194;28;20024;-79
2024/04/06 09:56:10;;;;;;;0.55;0.40;;;24.20;89.80;;;;;;5074901;28;20473;-79
2024/04/06 09:58:46;;;;;;;3.67;0.60;;;24.30;88.20;;;;;;5059373;28;20033;-80
2024/04/06 10:01:17;;;;;;;0.43;0.43;;;24.50;86.60;;;;;;5054499;28;20064;-80
2024/04/06 10:03:46;;;;;;;0.75;0.63;;;24.20;84.30;;;;;;5054850;28;20043;-80
2024/04/06 10:06:16;;;;;;;0.73;0.63;;;24.10;84.10;;;;;;5049886;28;20459;-79
2024/04/06 10:08:49;;;;;;;2.38;0.30;;;24.40;82.00;;;;;;5051237;28;20025;-79
2024/04/06 10:11:17;;;;;;;0.65;0.57;;;24.80;76.70;;;;;;5048591;28;20481;-82
2024/04/06 10:14:03;;;;;;;0.20;0.20;;;24.60;77.10;;;;;;5054261;28;20036;-80
2024/04/06 10:16:32;;;;;;;0.20;0.20;;;24.30;80.10;;;;;;5060051;28;20029;-80
2024/04/06 10:18:59;;;;;;;0.30;0.30;;;24.10;82.70;;;;;;5056643;28;20052;-81
2024/04/06 10:21:38;;;;;;;0.20;0.20;;;24.10;80.80;;;;;;5056164;28;20370;-81
2024/04/06 10:24:11;;;;;;;0.25;0.25;;;24.20;85.40;;;;;;5051994;28;20021;-80
2024/04/06 10:26:46;;;;;;;0.30;0.30;;;24.30;81.00;;;;;;5051869;28;20037;-82
2024/04/06 10:29:13;;;;;;;0.20;0.20;;;24.40;76.80;;;;;;5052803;28;20036;-78
2024/04/06 10:31:41;;;;;;;0.30;0.30;;;24.50;81.70;;;;;;5056890;28;20044;-81
2024/04/06 10:34:08;;;;;;;0.30;0.28;;;24.80;77.30;;;;;;5057687;28;20025;-77
2024/04/06 10:36:34;;;;;;;1.75;0.17;;;24.90;69.50;;;;;;5061532;28;20369;-80
2024/04/06 10:39:04;;;;;;;0.50;0.50;;;24.80;71.00;;;;;;5057367;28;20029;-80
2024/04/06 10:41:43;;;;;;;0.20;0.20;;;24.90;71.90;;;;;;5060538;28;20049;-79
2024/04/06 10:44:10;;;;;;;0.20;0.20;;;25.20;71.60;;;;;;5054595;28;20029;-79
2024/04/06 10:46:36;;;;;;;1.25;0.90;;;25.30;69.70;;;;;;5049297;28;20492;-80
2024/04/06 10:49:10;;;;;;;0.20;0.20;;;25.60;67.80;;;;;;5051122;28;20035;-81
2024/04/06 10:51:37;;;;;;;0.32;0.28;;;25.50;64.80;;;;;;5051802;28;20027;-80
2024/04/06 10:54:03;;;;;;;0.20;0.20;;;25.20;68.10;;;;;;5061957;28;20036;-79
2024/04/06 10:56:30;;;;;;;2.42;0.70;;;25.10;65.00;;;;;;5052941;28;20025;-77
2024/04/06 10:58:56;;;;;;;0.10;0.10;;;25.00;64.80;;;;;;5051143;28;20472;-80
2024/04/06 11:01:23;;;;;;;0.20;0.20;;;25.00;63.20;;;;;;5050293;28;20051;-80
2024/04/06 11:03:52;;;;;;;0.20;0.20;;;25.10;66.60;;;;;;5047926;28;20032;-77
2024/04/06 11:06:19;;;;;;;0.20;0.20;;;25.20;62.10;;;;;;5054650;28;20385;-77
2024/04/06 11:08:45;;;;;;;2.28;0.85;;;25.20;61.70;;;;;;5049688;28;20055;-81
2024/04/06 11:11:15;;;;;;;1.35;0.75;;;25.30;64.80;;;;;;5058391;28;20032;-82
2024/04/06 11:13:42;;;;;;;0.10;0.10;;;25.10;60.00;;;;;;5064851;28;20032;-82
2024/04/06 11:16:11;;;;;;;0.20;0.20;;;25.10;63.10;;;;;;5056253;28;20052;-80
2024/04/06 11:18:45;;;;;;;0.20;0.20;;;25.50;59.60;;;;;;5050149;28;20044;-77
2024/04/06 11:21:13;;;;;;;1.08;0.98;;;25.80;57.30;;;;;;5050373;28;20291;-76
2024/04/06 11:23:43;;;;;;;0.20;0.20;;;25.80;55.40;;;;;;5051928;28;20039;-77
2024/04/06 11:26:10;;;;;;;0.30;0.30;;;25.90;59.00;;;;;;5052283;28;20025;-78
2024/04/06 11:28:36;;;;;;;0.22;0.22;;;25.90;57.30;;;;;;5047550;28;20036;-78
2024/04/06 11:31:02;;;;;;;1.17;0.50;;;25.80;56.20;;;;;;5054367;28;20033;-78
2024/04/06 11:33:29;;;;;;;0.30;0.30;;;25.60;57.90;;;;;;5048960;28;20033;-76
2024/04/06 11:35:56;;;;;;;0.17;0.17;;;25.50;56.70;;;;;;5052660;28;20032;-78
2024/04/06 11:38:22;;;;;;;0.20;0.20;;;25.30;58.10;;;;;;5053720;28;20378;-78
2024/04/06 11:40:52;;;;;;;0.25;0.20;;;25.40;57.00;;;;;;5057754;28;20509;-77
2024/04/06 11:43:19;;;;;;;0.28;0.20;;;25.30;58.20;;;;;;5052338;28;20029;-76
2024/04/06 11:45:46;;;;;;;1.45;0.55;;;25.30;56.90;;;;;;5052016;28;20044;-78
2024/04/06 11:48:14;;;;;;;0.25;0.20;;;25.30;57.00;;;;;;5050121;28;20029;-79
2024/04/06 11:50:43;;;;;;;1.17;0.57;;;25.30;55.30;;;;;;5057415;28;20040;-78
2024/04/06 11:53:09;;;;;;;0.20;0.20;;;25.30;53.50;;;;;;5060412;28;20025;-82
2024/04/06 11:55:37;;;;;;;0.20;0.20;;;25.30;53.90;;;;;;5070541;28;20029;-77
2024/04/06 11:58:03;;;;;;;0.55;0.55;;;25.30;54.50;;;;;;5052022;28;20372;-77
2024/04/06 12:00:31;;;;;;;0.20;0.20;;;25.40;53.90;;;;;;5052878;28;20025;-76
2024/04/06 12:02:57;;;;;;;0.38;0.38;;;25.50;52.00;;;;;;5050845;28;20863;-78
2024/04/06 12:05:24;;;;;;;0.20;0.20;;;25.50;52.60;;;;;;5050106;28;20450;-75
2024/04/06 12:07:53;;;;;;;0.20;0.20;;;25.60;54.70;;;;;;5048529;28;20033;-75
2024/04/06 12:10:20;;;;;;;0.20;0.20;;;25.50;53.80;;;;;;5055175;28;20037;-80
2024/04/06 12:12:46;;;;;;;0.40;0.40;;;25.50;49.00;;;;;;5061432;28;20032;-78
2024/04/06 12:15:13;;;;;;;0.47;0.10;;;25.60;48.90;;;;;;5074685;28;20056;-76
2024/04/06 12:17:39;;;;;;;0.20;0.20;;;25.60;53.10;;;;;;5054551;28;20032;-77
2024/04/06 12:20:05;;;;;;;0.43;0.20;;;25.60;49.70;;;;;;5051066;28;20048;-75
2024/04/06 12:22:32;;;;;;;0.20;0.20;;;25.60;50.90;;;;;;5051424;28;20028;-75
2024/04/06 12:24:58;;;;;;;0.20;0.20;;;25.90;46.90;;;;;;5049560;28;20036;-74
2024/04/06 12:27:24;;;;;;;1.33;0.40;;;26.10;45.90;;;;;;5048608;28;20033;-75
2024/04/06 12:29:50;;;;;;;0.47;0.20;;;26.30;46.60;;;;;;5054387;28;20040;-75
2024/04/06 12:32:17;;;;;;;3.42;0.95;;;26.40;42.90;;;;;;5059651;28;20032;-79
2024/04/06 12:34:43;;;;;;;0.20;0.20;;;26.30;41.40;;;;;;5050835;28;20036;-76
2024/04/06 12:37:10;;;;;;;0.40;0.40;;;26.10;42.50;;;;;;5052090;28;20024;-77
2024/04/06 12:39:36;;;;;;;0.30;0.30;;;26.10;40.80;;;;;;5052935;28;20036;-76
2024/04/06 12:42:06;;;;;;;0.20;0.20;;;26.10;40.30;;;;;;5051023;28;20036;-76
2024/04/06 12:44:33;;;;;;;0.30;0.30;;;26.20;41.70;;;;;;5045506;28;20025;-77
2024/04/06 12:47:00;;;;;;;0.38;0.38;;;26.40;38.40;;;;;;5048926;28;20048;-81
2024/04/06 12:49:27;;;;;;;0.10;0.10;;;26.40;35.60;;;;;;5055430;28;20032;-78